Mont Saint Michel — FNMT — position and weather

sailwx.info

Track history (hours):
 
Tides and Currents Weather Stations Pressure Air Temp Water Temp Dewpoint Dewpoint Depression Visibility Wind Speed Wind Dir Waves Ship Positions

Mont Saint Michel

Last reported at 2018-Feb-20 15:00 UTC. Time now 2018-Feb-20 15:31 UTC.
Position N 49°17' W 000°15'.

Length 173 m; beam 29 m.

Type: Ship. MMSI: 227023100.

Date/timePositionNaut miles runAvg speedWind from/ knotsBaromVisibWave heightAir tempDewpointWater temp
2018-Feb-20 15:00N 49°17' W 000°15'0 0.0
2018-Feb-20 14:30N 49°17' W 000°15'0 0.0
2018-Feb-20 14:00N 49°17' W 000°15'3 4.9
2018-Feb-20 13:19N 49°21' W 000°14'1319.5
2018-Feb-20 12:39N 49°33' W 000°21'319.8
2018-Feb-20 12:30N 49°35' W 000°23'7620.0
2018-Feb-20 08:43N 50°46' W 001°06'210.1
2018-Feb-20 08:30N 50°48' W 001°07'1 1.5
2018-Feb-20 07:59N 50°49' W 001°06'0 0.0
2018-Feb-20 07:29N 50°49' W 001°06'0 0.0
2018-Feb-20 07:00N 50°49' W 001°06'1 2.1
2018-Feb-20 06:28N 50°48' W 001°07'8911.9
2018-Feb-19 22:55N 49°24' W 000°17'8911.3
2018-Feb-19 15:04N 50°47' W 001°07'1 9.7
2018-Feb-19 15:00N 50°48' W 001°07'1 1.6
2018-Feb-19 14:20N 50°49' W 001°06'0 0.0
2018-Feb-19 14:00N 50°49' W 001°06'0 0.0
2018-Feb-19 13:18N 50°49' W 001°06'0 0.9
2018-Feb-19 12:59N 50°49' W 001°06'7718.4
2018-Feb-19 08:48N 49°37' W 000°20'1019.3
2018-Feb-19 08:16N 49°28' W 000°15'519.2
2018-Feb-19 08:00N 49°23' W 000°14'9110.6
2018-Feb-18 23:25N 50°47' W 001°06'2 4.2
2018-Feb-18 22:59N 50°49' W 001°06'0 0.0
2018-Feb-18 22:29N 50°49' W 001°06'0 0.0
2018-Feb-18 21:43N 50°49' W 001°06'1 2.3
2018-Feb-18 21:29N 50°49' W 001°07'611.6
2018-Feb-18 21:00N 50°44' W 001°02'4417.0
2018-Feb-18 18:24N 50°02' W 000°38'717.8
2018-Feb-18 18:01N 49°56' W 000°34'917.9
2018-Feb-18 17:30N 49°47' W 000°29'918.2
2018-Feb-18 17:01N 49°39' W 000°24'918.8
2018-Feb-18 16:31N 49°30' W 000°19'1019.5
2018-Feb-18 16:00N 49°21' W 000°15'3 6.4
2018-Feb-18 15:29N 49°17' W 000°15'0 0.0
2018-Feb-18 15:00N 49°17' W 000°15'0 0.0
2018-Feb-18 14:30N 49°17' W 000°15'0 0.0
2018-Feb-18 14:00N 49°17' W 000°15'3 5.3
2018-Feb-18 13:30N 49°20' W 000°14'1019.2
2018-Feb-18 12:58N 49°30' W 000°20'918.9
2018-Feb-18 12:30N 49°38' W 000°25'1019.2
2018-Feb-18 12:00N 49°47' W 000°30'5120.2
2018-Feb-18 09:28N 50°35' W 000°56'817.9
2018-Feb-18 09:00N 50°43' W 001°01'713.4
2018-Feb-18 08:30N 50°49' W 001°07'0 0.9
2018-Feb-18 08:00N 50°49' W 001°06'0 0.0
2018-Feb-18 07:30N 50°49' W 001°06'0 0.0
2018-Feb-18 07:00N 50°49' W 001°06'1 1.5
2018-Feb-18 06:30N 50°48' W 001°07'613.0
2018-Feb-18 06:00N 50°43' W 001°01'4911.8
2018-Feb-18 01:51N 49°57' W 000°34'411.5
2018-Feb-18 01:30N 49°54' W 000°32'611.6
2018-Feb-18 01:00N 49°48' W 000°29'611.3
2018-Feb-18 00:30N 49°43' W 000°26'511.1
2018-Feb-18 00:00N 49°38' W 000°22'611.2
2018-Feb-17 23:30N 49°33' W 000°19'510.7
2018-Feb-17 23:00N 49°27' W 000°17'510.5
2018-Feb-17 22:30N 49°22' W 000°15'510.0
2018-Feb-17 22:00N 49°17' W 000°15'0 0.1
2018-Feb-17 21:30N 49°17' W 000°15'0 0.0
2018-Feb-17 21:00N 49°17' W 000°15'0 0.0
2018-Feb-17 20:30N 49°17' W 000°15'3 6.9
2018-Feb-17 20:00N 49°21' W 000°14'918.4
2018-Feb-17 19:30N 49°30' W 000°18'918.0
2018-Feb-17 19:00N 49°38' W 000°24'917.9
2018-Feb-17 18:30N 49°46' W 000°31'5118.1
2018-Feb-17 15:41N 50°34' W 000°56'420.3
2018-Feb-17 15:30N 50°38' W 000°58'918.8
2018-Feb-17 15:00N 50°46' W 001°05'3 6.2
2018-Feb-17 14:30N 50°49' W 001°06'0 0.0
2018-Feb-17 14:00N 50°49' W 001°06'0 0.0
2018-Feb-17 13:30N 50°49' W 001°06'0 0.2
2018-Feb-17 13:00N 50°49' W 001°06'5 9.6
2018-Feb-17 12:30N 50°44' W 001°04'4518.9
2018-Feb-17 10:08N 50°02' W 000°38'319.7
2018-Feb-17 09:58N 49°59' W 000°36'919.6
2018-Feb-17 09:30N 49°51' W 000°31'1019.6
2018-Feb-17 09:00N 49°42' W 000°26'1020.0
2018-Feb-17 08:30N 49°32' W 000°22'1019.7
2018-Feb-17 08:00N 49°23' W 000°16'611.2
2018-Feb-17 07:30N 49°17' W 000°15'0 0.0
2018-Feb-17 07:00N 49°17' W 000°15'0 0.0
2018-Feb-17 06:30N 49°17' W 000°15'0 0.0
2018-Feb-17 05:58N 49°17' W 000°15'0 0.7
2018-Feb-17 05:30N 49°18' W 000°15'714.4
2018-Feb-17 05:00N 49°25' W 000°16'816.7
2018-Feb-17 04:31N 49°32' W 000°21'815.1
2018-Feb-17 04:00N 49°40' W 000°25'611.5
2018-Feb-17 03:31N 49°45' W 000°27'510.2
2018-Feb-17 02:59N 49°50' W 000°29'4612.4
2018-Feb-16 23:14N 50°34' W 000°55'415.8
2018-Feb-16 23:00N 50°37' W 000°57'715.0
2018-Feb-16 22:30N 50°44' W 001°03'611.0
2018-Feb-16 22:00N 50°49' W 001°07'1 1.0
2018-Feb-16 21:28N 50°49' W 001°06'0 0.0
2018-Feb-16 20:59N 50°49' W 001°06'0 0.0
2018-Feb-16 20:25N 50°49' W 001°06'0 0.0
2018-Feb-16 19:54N 50°49' W 001°06'0 0.0
2018-Feb-16 19:30N 50°49' W 001°06'1 1.2
2018-Feb-16 19:00N 50°49' W 001°07'612.4
2018-Feb-16 18:31N 50°43' W 001°01'3817.8
2018-Feb-16 16:22N 50°07' W 000°42'616.9
2018-Feb-16 16:00N 50°01' W 000°39'817.1
2018-Feb-16 15:30N 49°53' W 000°34'714.6
2018-Feb-16 15:00N 49°47' W 000°30'713.3
2018-Feb-16 14:30N 49°40' W 000°26'714.9
2018-Feb-16 14:00N 49°34' W 000°22'919.0
2018-Feb-16 13:30N 49°25' W 000°17'714.9
2018-Feb-16 13:00N 49°17' W 000°15'0 0.1
2018-Feb-16 12:30N 49°17' W 000°15'0 0.0
2018-Feb-16 12:01N 49°17' W 000°15'0 0.0
2018-Feb-16 11:29N 49°17' W 000°15'0 0.0
2018-Feb-16 10:59N 49°17' W 000°15'0 0.0
2018-Feb-16 10:30N 49°17' W 000°15'0 0.0
2018-Feb-16 10:00N 49°17' W 000°15'0 0.0
2018-Feb-16 09:28N 49°17' W 000°15'0 0.0
2018-Feb-16 09:00N 49°17' W 000°15'0 0.0
2018-Feb-16 08:29N 49°17' W 000°15'0 0.0
2018-Feb-16 08:00N 49°17' W 000°15'0 0.0
2018-Feb-16 07:12N 49°17' W 000°15'0 0.0
2018-Feb-16 07:00N 49°17' W 000°15'0 0.0
2018-Feb-16 06:30N 49°17' W 000°15'3 6.2
2018-Feb-16 06:00N 49°20' W 000°14'1016.5
2018-Feb-16 05:24N 49°30' W 000°20'615.6
2018-Feb-16 05:00N 49°35' W 000°23'612.4
2018-Feb-16 04:30N 49°41' W 000°27'611.5
2018-Feb-16 04:00N 49°47' W 000°30'5513.8
2018-Feb-16 00:02N 50°38' W 000°59'114.9
2018-Feb-15 23:59N 50°39' W 000°59'714.8
2018-Feb-15 23:31N 50°45' W 001°05'4 7.8
2018-Feb-15 23:01N 50°49' W 001°06'0 0.0
2018-Feb-15 22:31N 50°49' W 001°06'0 0.0
2018-Feb-15 22:00N 50°49' W 001°06'0 0.0
2018-Feb-15 21:30N 50°49' W 001°06'1 2.2
2018-Feb-15 21:00N 50°48' W 001°07'611.9
2018-Feb-15 20:31N 50°43' W 001°01'4819.7
2018-Feb-15 18:06N 49°58' W 000°37'220.1
2018-Feb-15 18:00N 49°56' W 000°36'1020.2
2018-Feb-15 17:30N 49°47' W 000°31'1020.6
2018-Feb-15 17:00N 49°37' W 000°25'1020.7
2018-Feb-15 16:30N 49°28' W 000°19'918.0
2018-Feb-15 16:01N 49°19' W 000°15'2 3.7
2018-Feb-15 15:30N 49°17' W 000°15'0 0.0
2018-Feb-15 15:00N 49°17' W 000°15'0 0.0
2018-Feb-15 14:30N 49°17' W 000°15'0 0.0
2018-Feb-15 14:00N 49°17' W 000°15'3 5.6
2018-Feb-15 13:30N 49°20' W 000°15'1018.7
2018-Feb-15 12:57N 49°30' W 000°20'818.5
2018-Feb-15 12:30N 49°37' W 000°25'918.7
2018-Feb-15 12:00N 49°46' W 000°31'1019.2
2018-Feb-15 11:28N 49°56' W 000°37'4318.9
2018-Feb-15 09:12N 50°36' W 000°57'418.1
2018-Feb-15 09:00N 50°40' W 000°59'917.5
2018-Feb-15 08:30N 50°47' W 001°06'2 3.3
2018-Feb-15 08:00N 50°49' W 001°06'0 0.0
2018-Feb-15 07:30N 50°49' W 001°06'0 0.0
2018-Feb-15 07:00N 50°49' W 001°06'1 2.1
2018-Feb-15 06:30N 50°48' W 001°07'713.2
2018-Feb-15 06:01N 50°43' W 000°60'5011.6
2018-Feb-15 01:40N 49°55' W 000°35'211.4
2018-Feb-15 01:30N 49°54' W 000°34'611.5
2018-Feb-15 01:00N 49°48' W 000°30'611.5
2018-Feb-15 00:30N 49°43' W 000°27'611.3
2018-Feb-15 00:00N 49°38' W 000°24'511.0
2018-Feb-14 23:30N 49°33' W 000°21'510.7
2018-Feb-14 23:00N 49°28' W 000°18'510.8
2018-Feb-14 22:30N 49°22' W 000°15'510.4
2018-Feb-14 22:00N 49°17' W 000°15'0 0.0
2018-Feb-14 21:30N 49°17' W 000°15'0 0.0
2018-Feb-14 21:00N 49°17' W 000°15'0 0.0
2018-Feb-14 20:28N 49°17' W 000°15'3 5.5
2018-Feb-14 20:00N 49°20' W 000°14'917.6
2018-Feb-14 19:30N 49°28' W 000°19'917.9
2018-Feb-14 19:00N 49°37' W 000°23'918.2
2018-Feb-14 18:30N 49°45' W 000°28'5218.5
2018-Feb-14 15:42N 50°34' W 000°56'418.9
2018-Feb-14 15:30N 50°37' W 000°58'816.3
2018-Feb-14 15:00N 50°44' W 001°04'4 8.8
2018-Feb-14 14:31N 50°49' W 001°06'0 0.0
2018-Feb-14 14:00N 50°49' W 001°06'0 0.0
2018-Feb-14 13:30N 50°49' W 001°06'0 0.8
2018-Feb-14 13:00N 50°49' W 001°06'611.9
2018-Feb-14 12:31N 50°43' W 001°02'4618.5
2018-Feb-14 10:01N 49°60' W 000°37'118.7
2018-Feb-14 09:56N 49°59' W 000°37'818.7
2018-Feb-14 09:31N 49°51' W 000°32'1020.3
2018-Feb-14 09:00N 49°42' W 000°27'1020.3
2018-Feb-14 08:31N 49°32' W 000°21'1020.2
2018-Feb-14 08:00N 49°23' W 000°16'510.6
2018-Feb-14 07:30N 49°17' W 000°15'0 0.0
2018-Feb-14 06:58N 49°17' W 000°15'0 0.0
2018-Feb-14 06:30N 49°17' W 000°15'0 0.0
2018-Feb-14 06:00N 49°17' W 000°15'3 6.1
2018-Feb-14 05:30N 49°20' W 000°14'918.2
2018-Feb-14 05:00N 49°29' W 000°19'815.6
2018-Feb-14 04:31N 49°36' W 000°24'815.7
2018-Feb-14 04:00N 49°43' W 000°29'5317.1
2018-Feb-14 00:56N 50°33' W 000°56'818.1
2018-Feb-14 00:30N 50°40' W 000°60'815.2
2018-Feb-14 00:01N 50°47' W 001°06'2 4.1
2018-Feb-13 23:30N 50°49' W 001°06'0 0.0
2018-Feb-13 23:00N 50°49' W 001°06'0 0.0
2018-Feb-13 22:30N 50°49' W 001°06'0 0.0
2018-Feb-13 22:00N 50°49' W 001°06'1 1.1
2018-Feb-13 21:30N 50°49' W 001°07'510.2
2018-Feb-13 21:00N 50°44' W 001°03'4818.3
2018-Feb-13 18:24N 50°00' W 000°33'718.0
2018-Feb-13 18:00N 49°54' W 000°30'918.3
2018-Feb-13 17:30N 49°45' W 000°26'1019.1
2018-Feb-13 17:00N 49°36' W 000°22'1019.8
2018-Feb-13 16:30N 49°26' W 000°17'917.0
2018-Feb-13 16:00N 49°18' W 000°15'0 1.0
2018-Feb-13 15:30N 49°17' W 000°15'0 0.0
2018-Feb-13 15:00N 49°17' W 000°15'0 0.0
2018-Feb-13 14:30N 49°17' W 000°15'0 0.1
2018-Feb-13 14:00N 49°17' W 000°15'714.3
2018-Feb-13 13:30N 49°24' W 000°16'1019.4
2018-Feb-13 13:00N 49°33' W 000°22'919.0
2018-Feb-13 12:30N 49°42' W 000°27'918.8
2018-Feb-13 12:00N 49°51' W 000°32'4717.9
2018-Feb-13 09:24N 50°34' W 000°59'717.3
2018-Feb-13 09:00N 50°41' W 001°02'815.6
2018-Feb-13 08:30N 50°48' W 001°07'1 1.9
2018-Feb-13 08:00N 50°49' W 001°06'0 0.0
2018-Feb-13 07:31N 50°49' W 001°06'0 0.0
2018-Feb-13 07:00N 50°49' W 001°06'0 0.9
2018-Feb-13 06:31N 50°49' W 001°07'611.8
2018-Feb-13 06:01N 50°43' W 001°02'6512.0
2018-Feb-13 00:37N 49°39' W 000°46'1 9.3
2018-Feb-13 00:31N 49°39' W 000°45'612.2
2018-Feb-13 00:00N 49°35' W 000°38'612.5
2018-Feb-12 23:30N 49°31' W 000°31'612.2
2018-Feb-12 23:00N 49°26' W 000°24'612.3
2018-Feb-12 22:30N 49°22' W 000°17'510.4
2018-Feb-12 22:00N 49°17' W 000°15'0 0.0
2018-Feb-12 21:30N 49°17' W 000°15'0 0.0
2018-Feb-12 20:59N 49°17' W 000°15'0 0.0
2018-Feb-12 20:29N 49°17' W 000°15'3 6.4
2018-Feb-12 20:01N 49°20' W 000°14'917.2
2018-Feb-12 19:29N 49°29' W 000°20'817.2
2018-Feb-12 19:00N 49°36' W 000°25'917.8
2018-Feb-12 18:30N 49°44' W 000°30'5719.2
2018-Feb-12 15:32N 50°39' W 000°58'019.5
2018-Feb-12 15:30N 50°39' W 000°58'816.7
2018-Feb-12 15:01N 50°46' W 001°06'3 5.1
2018-Feb-12 14:30N 50°49' W 001°06'0 0.0
2018-Feb-12 14:00N 50°49' W 001°06'0 0.0
2018-Feb-12 13:30N 50°49' W 001°06'0 0.5
2018-Feb-12 13:00N 50°49' W 001°06'611.4
2018-Feb-12 12:30N 50°43' W 001°03'4819.1
2018-Feb-12 10:00N 49°59' W 000°34'919.0
2018-Feb-12 09:30N 49°50' W 000°29'918.8
2018-Feb-12 09:00N 49°41' W 000°25'918.7
2018-Feb-12 08:30N 49°32' W 000°20'1019.3
2018-Feb-12 08:00N 49°23' W 000°16'610.7
2018-Feb-12 07:28N 49°17' W 000°15'0 0.0
2018-Feb-12 07:00N 49°17' W 000°15'0 0.0
2018-Feb-12 06:26N 49°17' W 000°15'0 0.0
2018-Feb-12 06:00N 49°17' W 000°15'0 0.2
2018-Feb-12 05:30N 49°17' W 000°15'815.9
2018-Feb-12 05:01N 49°25' W 000°15'714.4
2018-Feb-12 04:30N 49°32' W 000°20'611.8
2018-Feb-12 04:00N 49°37' W 000°24'713.4
2018-Feb-12 03:30N 49°43' W 000°28'815.4
2018-Feb-12 03:00N 49°50' W 000°33'4714.9
2018-Feb-11 23:51N 50°35' W 000°56'515.4
2018-Feb-11 23:30N 50°40' W 000°59'715.0
2018-Feb-11 23:00N 50°46' W 001°05'3 5.3
2018-Feb-11 22:30N 50°49' W 001°06'0 0.0
2018-Feb-11 22:00N 50°49' W 001°06'0 0.0
2018-Feb-11 21:30N 50°49' W 001°06'0 0.7
2018-Feb-11 21:01N 50°49' W 001°06'611.6
2018-Feb-11 20:31N 50°43' W 001°03'5019.0
2018-Feb-11 17:54N 49°57' W 000°36'718.5
2018-Feb-11 17:30N 49°49' W 000°34'918.4
2018-Feb-11 17:00N 49°41' W 000°30'918.4
2018-Feb-11 16:30N 49°32' W 000°23'918.9
2018-Feb-11 16:01N 49°24' W 000°17'713.9
2018-Feb-11 15:30N 49°17' W 000°15'0 0.1
2018-Feb-11 15:01N 49°17' W 000°15'0 0.0
2018-Feb-11 14:30N 49°17' W 000°15'0 0.0
2018-Feb-11 14:01N 49°17' W 000°15'3 5.1
2018-Feb-11 13:30N 49°20' W 000°14'1019.5
2018-Feb-11 13:00N 49°29' W 000°19'1020.0
2018-Feb-11 12:30N 49°39' W 000°24'1019.5
2018-Feb-11 12:00N 49°48' W 000°30'5419.6
2018-Feb-11 09:16N 50°37' W 001°04'417.1
2018-Feb-11 09:00N 50°41' W 001°03'714.5
2018-Feb-11 08:30N 50°48' W 001°07'1 1.5
2018-Feb-11 08:00N 50°49' W 001°06'0 0.0
2018-Feb-11 07:30N 50°49' W 001°06'0 0.0
2018-Feb-11 07:00N 50°49' W 001°06'0 0.8
2018-Feb-11 06:30N 50°49' W 001°06'612.3
2018-Feb-11 06:00N 50°43' W 001°02'4711.2
2018-Feb-11 01:50N 49°60' W 000°34'310.1
2018-Feb-11 01:30N 49°56' W 000°33'510.9
2018-Feb-11 01:00N 49°51' W 000°30'611.1
2018-Feb-11 00:30N 49°46' W 000°28'611.2
2018-Feb-11 00:00N 49°41' W 000°25'611.6
2018-Feb-10 23:30N 49°35' W 000°22'611.8
2018-Feb-10 23:00N 49°30' W 000°19'611.9
2018-Feb-10 22:30N 49°24' W 000°16'611.8
2018-Feb-10 22:00N 49°18' W 000°15'1 1.7
2018-Feb-10 21:30N 49°17' W 000°15'0 0.0
2018-Feb-10 20:59N 49°17' W 000°15'0 0.0
2018-Feb-10 20:30N 49°17' W 000°15'3 5.4
2018-Feb-10 20:00N 49°20' W 000°14'917.8
2018-Feb-10 19:30N 49°29' W 000°17'918.1
2018-Feb-10 19:00N 49°37' W 000°21'918.1
2018-Feb-10 18:30N 49°46' W 000°25'1018.6
2018-Feb-10 18:00N 49°55' W 000°30'4419.6
2018-Feb-10 15:45N 50°35' W 000°58'519.3
2018-Feb-10 15:30N 50°40' W 001°01'816.5
2018-Feb-10 15:00N 50°47' W 001°06'  
Track history (hours):
 
Tides and Currents Weather Stations Pressure Air Temp Water Temp Dewpoint Dewpoint Depression Visibility Wind Speed Wind Dir Waves Ship Positions

Mont Saint Michel

Last reported at 2018-Feb-20 15:00 UTC. Time now 2018-Feb-20 15:31 UTC.
Position N 49°17' W 000°15'.

Length 173 m; beam 29 m.

Type: Ship. MMSI: 227023100.

Date/timePositionNaut miles runAvg speedWind from/ knotsBaromVisibWave heightAir tempDewpointWater temp
2018-Feb-20 15:00N 49°17' W 000°15'0 0.0
2018-Feb-20 14:30N 49°17' W 000°15'0 0.0
2018-Feb-20 14:00N 49°17' W 000°15'3 4.9
2018-Feb-20 13:19N 49°21' W 000°14'1319.5
2018-Feb-20 12:39N 49°33' W 000°21'319.8
2018-Feb-20 12:30N 49°35' W 000°23'7620.0
2018-Feb-20 08:43N 50°46' W 001°06'210.1
2018-Feb-20 08:30N 50°48' W 001°07'1 1.5
2018-Feb-20 07:59N 50°49' W 001°06'0 0.0
2018-Feb-20 07:29N 50°49' W 001°06'0 0.0
2018-Feb-20 07:00N 50°49' W 001°06'1 2.1
2018-Feb-20 06:28N 50°48' W 001°07'8911.9
2018-Feb-19 22:55N 49°24' W 000°17'8911.3
2018-Feb-19 15:04N 50°47' W 001°07'1 9.7
2018-Feb-19 15:00N 50°48' W 001°07'1 1.6
2018-Feb-19 14:20N 50°49' W 001°06'0 0.0
2018-Feb-19 14:00N 50°49' W 001°06'0 0.0
2018-Feb-19 13:18N 50°49' W 001°06'0 0.9
2018-Feb-19 12:59N 50°49' W 001°06'7718.4
2018-Feb-19 08:48N 49°37' W 000°20'1019.3
2018-Feb-19 08:16N 49°28' W 000°15'519.2
2018-Feb-19 08:00N 49°23' W 000°14'9110.6
2018-Feb-18 23:25N 50°47' W 001°06'2 4.2
2018-Feb-18 22:59N 50°49' W 001°06'0 0.0
2018-Feb-18 22:29N 50°49' W 001°06'0 0.0
2018-Feb-18 21:43N 50°49' W 001°06'1 2.3
2018-Feb-18 21:29N 50°49' W 001°07'611.6
2018-Feb-18 21:00N 50°44' W 001°02'4417.0
2018-Feb-18 18:24N 50°02' W 000°38'717.8
2018-Feb-18 18:01N 49°56' W 000°34'917.9
2018-Feb-18 17:30N 49°47' W 000°29'918.2
2018-Feb-18 17:01N 49°39' W 000°24'918.8
2018-Feb-18 16:31N 49°30' W 000°19'1019.5
2018-Feb-18 16:00N 49°21' W 000°15'3 6.4
2018-Feb-18 15:29N 49°17' W 000°15'0 0.0
2018-Feb-18 15:00N 49°17' W 000°15'0 0.0
2018-Feb-18 14:30N 49°17' W 000°15'0 0.0
2018-Feb-18 14:00N 49°17' W 000°15'3 5.3
2018-Feb-18 13:30N 49°20' W 000°14'1019.2
2018-Feb-18 12:58N 49°30' W 000°20'918.9
2018-Feb-18 12:30N 49°38' W 000°25'1019.2
2018-Feb-18 12:00N 49°47' W 000°30'5120.2
2018-Feb-18 09:28N 50°35' W 000°56'817.9
2018-Feb-18 09:00N 50°43' W 001°01'713.4
2018-Feb-18 08:30N 50°49' W 001°07'0 0.9
2018-Feb-18 08:00N 50°49' W 001°06'0 0.0
2018-Feb-18 07:30N 50°49' W 001°06'0 0.0
2018-Feb-18 07:00N 50°49' W 001°06'1 1.5
2018-Feb-18 06:30N 50°48' W 001°07'613.0
2018-Feb-18 06:00N 50°43' W 001°01'4911.8
2018-Feb-18 01:51N 49°57' W 000°34'411.5
2018-Feb-18 01:30N 49°54' W 000°32'611.6
2018-Feb-18 01:00N 49°48' W 000°29'611.3
2018-Feb-18 00:30N 49°43' W 000°26'511.1
2018-Feb-18 00:00N 49°38' W 000°22'611.2
2018-Feb-17 23:30N 49°33' W 000°19'510.7
2018-Feb-17 23:00N 49°27' W 000°17'510.5
2018-Feb-17 22:30N 49°22' W 000°15'510.0
2018-Feb-17 22:00N 49°17' W 000°15'0 0.1
2018-Feb-17 21:30N 49°17' W 000°15'0 0.0
2018-Feb-17 21:00N 49°17' W 000°15'0 0.0
2018-Feb-17 20:30N 49°17' W 000°15'3 6.9
2018-Feb-17 20:00N 49°21' W 000°14'918.4
2018-Feb-17 19:30N 49°30' W 000°18'918.0
2018-Feb-17 19:00N 49°38' W 000°24'917.9
2018-Feb-17 18:30N 49°46' W 000°31'5118.1
2018-Feb-17 15:41N 50°34' W 000°56'420.3
2018-Feb-17 15:30N 50°38' W 000°58'918.8
2018-Feb-17 15:00N 50°46' W 001°05'3 6.2
2018-Feb-17 14:30N 50°49' W 001°06'0 0.0
2018-Feb-17 14:00N 50°49' W 001°06'0 0.0
2018-Feb-17 13:30N 50°49' W 001°06'0 0.2
2018-Feb-17 13:00N 50°49' W 001°06'5 9.6
2018-Feb-17 12:30N 50°44' W 001°04'4518.9
2018-Feb-17 10:08N 50°02' W 000°38'319.7
2018-Feb-17 09:58N 49°59' W 000°36'919.6
2018-Feb-17 09:30N 49°51' W 000°31'1019.6
2018-Feb-17 09:00N 49°42' W 000°26'1020.0
2018-Feb-17 08:30N 49°32' W 000°22'1019.7
2018-Feb-17 08:00N 49°23' W 000°16'611.2
2018-Feb-17 07:30N 49°17' W 000°15'0 0.0
2018-Feb-17 07:00N 49°17' W 000°15'0 0.0
2018-Feb-17 06:30N 49°17' W 000°15'0 0.0
2018-Feb-17 05:58N 49°17' W 000°15'0 0.7
2018-Feb-17 05:30N 49°18' W 000°15'714.4
2018-Feb-17 05:00N 49°25' W 000°16'816.7
2018-Feb-17 04:31N 49°32' W 000°21'815.1
2018-Feb-17 04:00N 49°40' W 000°25'611.5
2018-Feb-17 03:31N 49°45' W 000°27'510.2
2018-Feb-17 02:59N 49°50' W 000°29'4612.4
2018-Feb-16 23:14N 50°34' W 000°55'415.8
2018-Feb-16 23:00N 50°37' W 000°57'715.0
2018-Feb-16 22:30N 50°44' W 001°03'611.0
2018-Feb-16 22:00N 50°49' W 001°07'1 1.0
2018-Feb-16 21:28N 50°49' W 001°06'0 0.0
2018-Feb-16 20:59N 50°49' W 001°06'0 0.0
2018-Feb-16 20:25N 50°49' W 001°06'0 0.0
2018-Feb-16 19:54N 50°49' W 001°06'0 0.0
2018-Feb-16 19:30N 50°49' W 001°06'1 1.2
2018-Feb-16 19:00N 50°49' W 001°07'612.4
2018-Feb-16 18:31N 50°43' W 001°01'3817.8
2018-Feb-16 16:22N 50°07' W 000°42'616.9
2018-Feb-16 16:00N 50°01' W 000°39'817.1
2018-Feb-16 15:30N 49°53' W 000°34'714.6
2018-Feb-16 15:00N 49°47' W 000°30'713.3
2018-Feb-16 14:30N 49°40' W 000°26'714.9
2018-Feb-16 14:00N 49°34' W 000°22'919.0
2018-Feb-16 13:30N 49°25' W 000°17'714.9
2018-Feb-16 13:00N 49°17' W 000°15'0 0.1
2018-Feb-16 12:30N 49°17' W 000°15'0 0.0
2018-Feb-16 12:01N 49°17' W 000°15'0 0.0
2018-Feb-16 11:29N 49°17' W 000°15'0 0.0
2018-Feb-16 10:59N 49°17' W 000°15'0 0.0
2018-Feb-16 10:30N 49°17' W 000°15'0 0.0
2018-Feb-16 10:00N 49°17' W 000°15'0 0.0
2018-Feb-16 09:28N 49°17' W 000°15'0 0.0
2018-Feb-16 09:00N 49°17' W 000°15'0 0.0
2018-Feb-16 08:29N 49°17' W 000°15'0 0.0
2018-Feb-16 08:00N 49°17' W 000°15'0 0.0
2018-Feb-16 07:12N 49°17' W 000°15'0 0.0
2018-Feb-16 07:00N 49°17' W 000°15'0 0.0
2018-Feb-16 06:30N 49°17' W 000°15'3 6.2
2018-Feb-16 06:00N 49°20' W 000°14'1016.5
2018-Feb-16 05:24N 49°30' W 000°20'615.6
2018-Feb-16 05:00N 49°35' W 000°23'612.4
2018-Feb-16 04:30N 49°41' W 000°27'611.5
2018-Feb-16 04:00N 49°47' W 000°30'5513.8
2018-Feb-16 00:02N 50°38' W 000°59'114.9
2018-Feb-15 23:59N 50°39' W 000°59'714.8
2018-Feb-15 23:31N 50°45' W 001°05'4 7.8
2018-Feb-15 23:01N 50°49' W 001°06'0 0.0
2018-Feb-15 22:31N 50°49' W 001°06'0 0.0
2018-Feb-15 22:00N 50°49' W 001°06'0 0.0
2018-Feb-15 21:30N 50°49' W 001°06'1 2.2
2018-Feb-15 21:00N 50°48' W 001°07'611.9
2018-Feb-15 20:31N 50°43' W 001°01'4819.7
2018-Feb-15 18:06N 49°58' W 000°37'220.1
2018-Feb-15 18:00N 49°56' W 000°36'1020.2
2018-Feb-15 17:30N 49°47' W 000°31'1020.6
2018-Feb-15 17:00N 49°37' W 000°25'1020.7
2018-Feb-15 16:30N 49°28' W 000°19'918.0
2018-Feb-15 16:01N 49°19' W 000°15'2 3.7
2018-Feb-15 15:30N 49°17' W 000°15'0 0.0
2018-Feb-15 15:00N 49°17' W 000°15'0 0.0
2018-Feb-15 14:30N 49°17' W 000°15'0 0.0
2018-Feb-15 14:00N 49°17' W 000°15'3 5.6
2018-Feb-15 13:30N 49°20' W 000°15'1018.7
2018-Feb-15 12:57N 49°30' W 000°20'818.5
2018-Feb-15 12:30N 49°37' W 000°25'918.7
2018-Feb-15 12:00N 49°46' W 000°31'1019.2
2018-Feb-15 11:28N 49°56' W 000°37'4318.9
2018-Feb-15 09:12N 50°36' W 000°57'418.1
2018-Feb-15 09:00N 50°40' W 000°59'917.5
2018-Feb-15 08:30N 50°47' W 001°06'2 3.3
2018-Feb-15 08:00N 50°49' W 001°06'0 0.0
2018-Feb-15 07:30N 50°49' W 001°06'0 0.0
2018-Feb-15 07:00N 50°49' W 001°06'1 2.1
2018-Feb-15 06:30N 50°48' W 001°07'713.2
2018-Feb-15 06:01N 50°43' W 000°60'5011.6
2018-Feb-15 01:40N 49°55' W 000°35'211.4
2018-Feb-15 01:30N 49°54' W 000°34'611.5
2018-Feb-15 01:00N 49°48' W 000°30'611.5
2018-Feb-15 00:30N 49°43' W 000°27'611.3
2018-Feb-15 00:00N 49°38' W 000°24'511.0
2018-Feb-14 23:30N 49°33' W 000°21'510.7
2018-Feb-14 23:00N 49°28' W 000°18'510.8
2018-Feb-14 22:30N 49°22' W 000°15'510.4
2018-Feb-14 22:00N 49°17' W 000°15'0 0.0
2018-Feb-14 21:30N 49°17' W 000°15'0 0.0
2018-Feb-14 21:00N 49°17' W 000°15'0 0.0
2018-Feb-14 20:28N 49°17' W 000°15'3 5.5
2018-Feb-14 20:00N 49°20' W 000°14'917.6
2018-Feb-14 19:30N 49°28' W 000°19'917.9
2018-Feb-14 19:00N 49°37' W 000°23'918.2
2018-Feb-14 18:30N 49°45' W 000°28'5218.5
2018-Feb-14 15:42N 50°34' W 000°56'418.9
2018-Feb-14 15:30N 50°37' W 000°58'816.3
2018-Feb-14 15:00N 50°44' W 001°04'4 8.8
2018-Feb-14 14:31N 50°49' W 001°06'0 0.0
2018-Feb-14 14:00N 50°49' W 001°06'0 0.0
2018-Feb-14 13:30N 50°49' W 001°06'0 0.8
2018-Feb-14 13:00N 50°49' W 001°06'611.9
2018-Feb-14 12:31N 50°43' W 001°02'4618.5
2018-Feb-14 10:01N 49°60' W 000°37'118.7
2018-Feb-14 09:56N 49°59' W 000°37'818.7
2018-Feb-14 09:31N 49°51' W 000°32'1020.3
2018-Feb-14 09:00N 49°42' W 000°27'1020.3
2018-Feb-14 08:31N 49°32' W 000°21'1020.2
2018-Feb-14 08:00N 49°23' W 000°16'510.6
2018-Feb-14 07:30N 49°17' W 000°15'0 0.0
2018-Feb-14 06:58N 49°17' W 000°15'0 0.0
2018-Feb-14 06:30N 49°17' W 000°15'0 0.0
2018-Feb-14 06:00N 49°17' W 000°15'3 6.1
2018-Feb-14 05:30N 49°20' W 000°14'918.2
2018-Feb-14 05:00N 49°29' W 000°19'815.6
2018-Feb-14 04:31N 49°36' W 000°24'815.7
2018-Feb-14 04:00N 49°43' W 000°29'5317.1
2018-Feb-14 00:56N 50°33' W 000°56'818.1
2018-Feb-14 00:30N 50°40' W 000°60'815.2
2018-Feb-14 00:01N 50°47' W 001°06'2 4.1
2018-Feb-13 23:30N 50°49' W 001°06'0 0.0
2018-Feb-13 23:00N 50°49' W 001°06'0 0.0
2018-Feb-13 22:30N 50°49' W 001°06'0 0.0
2018-Feb-13 22:00N 50°49' W 001°06'1 1.1
2018-Feb-13 21:30N 50°49' W 001°07'510.2
2018-Feb-13 21:00N 50°44' W 001°03'4818.3
2018-Feb-13 18:24N 50°00' W 000°33'718.0
2018-Feb-13 18:00N 49°54' W 000°30'918.3
2018-Feb-13 17:30N 49°45' W 000°26'1019.1
2018-Feb-13 17:00N 49°36' W 000°22'1019.8
2018-Feb-13 16:30N 49°26' W 000°17'917.0
2018-Feb-13 16:00N 49°18' W 000°15'0 1.0
2018-Feb-13 15:30N 49°17' W 000°15'0 0.0
2018-Feb-13 15:00N 49°17' W 000°15'0 0.0
2018-Feb-13 14:30N 49°17' W 000°15'0 0.1
2018-Feb-13 14:00N 49°17' W 000°15'714.3
2018-Feb-13 13:30N 49°24' W 000°16'1019.4
2018-Feb-13 13:00N 49°33' W 000°22'919.0
2018-Feb-13 12:30N 49°42' W 000°27'918.8
2018-Feb-13 12:00N 49°51' W 000°32'4717.9
2018-Feb-13 09:24N 50°34' W 000°59'717.3
2018-Feb-13 09:00N 50°41' W 001°02'815.6
2018-Feb-13 08:30N 50°48' W 001°07'1 1.9
2018-Feb-13 08:00N 50°49' W 001°06'0 0.0
2018-Feb-13 07:31N 50°49' W 001°06'0 0.0
2018-Feb-13 07:00N 50°49' W 001°06'0 0.9
2018-Feb-13 06:31N 50°49' W 001°07'611.8
2018-Feb-13 06:01N 50°43' W 001°02'6512.0
2018-Feb-13 00:37N 49°39' W 000°46'1 9.3
2018-Feb-13 00:31N 49°39' W 000°45'612.2
2018-Feb-13 00:00N 49°35' W 000°38'612.5
2018-Feb-12 23:30N 49°31' W 000°31'612.2
2018-Feb-12 23:00N 49°26' W 000°24'612.3
2018-Feb-12 22:30N 49°22' W 000°17'510.4
2018-Feb-12 22:00N 49°17' W 000°15'0 0.0
2018-Feb-12 21:30N 49°17' W 000°15'0 0.0
2018-Feb-12 20:59N 49°17' W 000°15'0 0.0
2018-Feb-12 20:29N 49°17' W 000°15'3 6.4
2018-Feb-12 20:01N 49°20' W 000°14'917.2
2018-Feb-12 19:29N 49°29' W 000°20'817.2
2018-Feb-12 19:00N 49°36' W 000°25'917.8
2018-Feb-12 18:30N 49°44' W 000°30'5719.2
2018-Feb-12 15:32N 50°39' W 000°58'019.5
2018-Feb-12 15:30N 50°39' W 000°58'816.7
2018-Feb-12 15:01N 50°46' W 001°06'3 5.1
2018-Feb-12 14:30N 50°49' W 001°06'0 0.0
2018-Feb-12 14:00N 50°49' W 001°06'0 0.0
2018-Feb-12 13:30N 50°49' W 001°06'0 0.5
2018-Feb-12 13:00N 50°49' W 001°06'611.4
2018-Feb-12 12:30N 50°43' W 001°03'4819.1
2018-Feb-12 10:00N 49°59' W 000°34'919.0
2018-Feb-12 09:30N 49°50' W 000°29'918.8
2018-Feb-12 09:00N 49°41' W 000°25'918.7
2018-Feb-12 08:30N 49°32' W 000°20'1019.3
2018-Feb-12 08:00N 49°23' W 000°16'610.7
2018-Feb-12 07:28N 49°17' W 000°15'0 0.0
2018-Feb-12 07:00N 49°17' W 000°15'0 0.0
2018-Feb-12 06:26N 49°17' W 000°15'0 0.0
2018-Feb-12 06:00N 49°17' W 000°15'0 0.2
2018-Feb-12 05:30N 49°17' W 000°15'815.9
2018-Feb-12 05:01N 49°25' W 000°15'714.4
2018-Feb-12 04:30N 49°32' W 000°20'611.8
2018-Feb-12 04:00N 49°37' W 000°24'713.4
2018-Feb-12 03:30N 49°43' W 000°28'815.4
2018-Feb-12 03:00N 49°50' W 000°33'4714.9
2018-Feb-11 23:51N 50°35' W 000°56'515.4
2018-Feb-11 23:30N 50°40' W 000°59'715.0
2018-Feb-11 23:00N 50°46' W 001°05'3 5.3
2018-Feb-11 22:30N 50°49' W 001°06'0 0.0
2018-Feb-11 22:00N 50°49' W 001°06'0 0.0
2018-Feb-11 21:30N 50°49' W 001°06'0 0.7
2018-Feb-11 21:01N 50°49' W 001°06'611.6
2018-Feb-11 20:31N 50°43' W 001°03'5019.0
2018-Feb-11 17:54N 49°57' W 000°36'718.5
2018-Feb-11 17:30N 49°49' W 000°34'918.4
2018-Feb-11 17:00N 49°41' W 000°30'918.4
2018-Feb-11 16:30N 49°32' W 000°23'918.9
2018-Feb-11 16:01N 49°24' W 000°17'713.9
2018-Feb-11 15:30N 49°17' W 000°15'0 0.1
2018-Feb-11 15:01N 49°17' W 000°15'0 0.0
2018-Feb-11 14:30N 49°17' W 000°15'0 0.0
2018-Feb-11 14:01N 49°17' W 000°15'3 5.1
2018-Feb-11 13:30N 49°20' W 000°14'1019.5
2018-Feb-11 13:00N 49°29' W 000°19'1020.0
2018-Feb-11 12:30N 49°39' W 000°24'1019.5
2018-Feb-11 12:00N 49°48' W 000°30'5419.6
2018-Feb-11 09:16N 50°37' W 001°04'417.1
2018-Feb-11 09:00N 50°41' W 001°03'714.5
2018-Feb-11 08:30N 50°48' W 001°07'1 1.5
2018-Feb-11 08:00N 50°49' W 001°06'0 0.0
2018-Feb-11 07:30N 50°49' W 001°06'0 0.0
2018-Feb-11 07:00N 50°49' W 001°06'0 0.8
2018-Feb-11 06:30N 50°49' W 001°06'612.3
2018-Feb-11 06:00N 50°43' W 001°02'4711.2
2018-Feb-11 01:50N 49°60' W 000°34'310.1
2018-Feb-11 01:30N 49°56' W 000°33'510.9
2018-Feb-11 01:00N 49°51' W 000°30'611.1
2018-Feb-11 00:30N 49°46' W 000°28'611.2
2018-Feb-11 00:00N 49°41' W 000°25'611.6
2018-Feb-10 23:30N 49°35' W 000°22'611.8
2018-Feb-10 23:00N 49°30' W 000°19'611.9
2018-Feb-10 22:30N 49°24' W 000°16'611.8
2018-Feb-10 22:00N 49°18' W 000°15'1 1.7
2018-Feb-10 21:30N 49°17' W 000°15'0 0.0
2018-Feb-10 20:59N 49°17' W 000°15'0 0.0
2018-Feb-10 20:30N 49°17' W 000°15'3 5.4
2018-Feb-10 20:00N 49°20' W 000°14'917.8
2018-Feb-10 19:30N 49°29' W 000°17'918.1
2018-Feb-10 19:00N 49°37' W 000°21'918.1
2018-Feb-10 18:30N 49°46' W 000°25'1018.6
2018-Feb-10 18:00N 49°55' W 000°30'4419.6
2018-Feb-10 15:45N 50°35' W 000°58'519.3
2018-Feb-10 15:30N 50°40' W 001°01'816.5
2018-Feb-10 15:00N 50°47' W 001°06'  

Dump ship's entire track history